Pueblo Of Acoma, NM (87034)

6:45 PM MDT on June 03, 2015 (GMT -0600)
Old Laguna Sub | | Change Station
CLOSE
Current Station
Personal Weather Station
Location: New Mexico, NM
Elevation: 5820 ft
Nearby Weather Stations

Elev 5820 ft 35.05 °N, 107.37 °W | Updated 4 minutes ago

Clear
Clear
83.1 °F
Feels Like 80 °F
N
7.3
Wind Variable Wind from NE
Gusts 14.1 mph

Today
High -- | Low -- °F
--% Chance of Precip.
Yesterday
High -- | Low -- °F
Precip. -- in
5:56 AM 8:20 PM
Full, 98% visible
Pressure 30.00 in
Visibility 10.0 miles
Clouds Clear
Heat Index 80 °F
Dew Point 23 °F
Humidity 10%
Rainfall 0.00 in
Snow Depth Not available.
UV 2 out of 12
Pollen 5.10 out of 12
Air Quality Not available.
Flu Activity Sporadic
METAR KGNT 040035Z AUTO 27015G21KT 10SM CLR 29/M11 A3000 RMK AO2 T02881107

More Conditions Fewer Conditions

Pressure 30.00 in
Visibility 10.0 miles
Clouds Clear
Heat Index 80 °F
Dew Point 23 °F
Humidity 10%
Rainfall 0.00 in
Snow Depth Not available.
UV 2 out of 12
Pollen 5.10 out of 12
Air Quality Not available.
Flu Activity Sporadic
METAR KGNT 040035Z AUTO 27015G21KT 10SM CLR 29/M11 A3000 RMK AO2 T02881107

More Conditions Fewer Conditions

10-Day Weather Forecast

×

Almanac

Astronomy

Jun. 03, 2015 Rise Set
Actual Time
Civil Twilight
Nautical Twilight
Astronomical Twilight
Moon
Length of Visible Light
Length of Day
Tomorrow will be .
, % of the Moon is Illuminated

Today's Extremes

State Highs State Lows

Community

WunderPhotos

Upload Photos

1,826,325 photos uploaded!

WunderBlogs® & News

Nearby

Air Quality

  Air Quality AQ Index Pollutant
Not available.

Snow Depth

Station Depth Elevation

Earthquake Activity

City Distance Mag. Time & Date
Minimum magnitude displayed is 2.5.

Coastal Water Temperatures

Place Temperature

Stations

Nearby Weather Stations

Station Location Temp. Windchill Dew Point Humidity Wind Precip. Elev Updated Type